createdAt,value
2018-04-17T00:02:02.892Z,5.68
2018-04-17T00:04:30.351Z,5.03
2018-04-17T00:06:57.813Z,5.95
2018-04-17T00:09:25.263Z,6.37
2018-04-17T00:11:52.719Z,4.68
2018-04-17T00:14:20.165Z,5.60
2018-04-17T00:16:47.644Z,5.03
2018-04-17T00:19:15.143Z,5.32
2018-04-17T00:21:42.619Z,4.80
2018-04-17T00:24:10.077Z,6.30
2018-04-17T00:26:37.559Z,5.87
2018-04-17T00:29:04.988Z,7.90
2018-04-17T00:31:32.445Z,4.70
2018-04-17T00:33:59.898Z,5.72
2018-04-17T00:36:27.358Z,5.20
2018-04-17T00:38:54.849Z,6.63
2018-04-17T00:58:41.588Z,5.55
2018-04-17T01:01:09.040Z,8.05
2018-04-17T01:03:36.509Z,6.87
2018-04-17T01:06:03.943Z,8.33
2018-04-17T01:08:31.388Z,8.57
2018-04-17T01:10:58.841Z,7.70
2018-04-17T01:13:26.318Z,8.02
2018-04-17T01:15:53.756Z,8.03
2018-04-17T01:18:21.263Z,13.90
2018-04-17T01:20:48.721Z,11.30
2018-04-17T01:23:16.186Z,11.77
2018-04-17T01:25:43.655Z,11.00
2018-04-17T01:28:11.099Z,9.30
2018-04-17T01:30:38.550Z,8.63
2018-04-17T01:33:06.013Z,7.13
2018-04-17T01:35:33.448Z,6.87
2018-04-17T01:38:00.899Z,7.87
2018-04-17T01:40:28.334Z,7.60
2018-04-17T01:42:55.985Z,6.10
2018-04-17T01:45:24.195Z,8.33
2018-04-17T01:47:51.649Z,7.47
2018-04-17T01:50:19.092Z,7.13
2018-04-17T01:52:46.538Z,8.70
2018-04-17T01:55:13.991Z,7.20
2018-04-17T01:57:41.459Z,8.20
2018-04-17T02:00:09.681Z,8.03
2018-04-17T02:02:37.142Z,8.43
2018-04-17T02:05:04.610Z,5.67
2018-04-17T02:07:32.044Z,4.97
2018-04-17T02:09:59.513Z,5.47
2018-04-17T02:12:26.975Z,5.93
2018-04-17T02:17:28.288Z,7.40
2018-04-17T02:19:55.750Z,6.17
2018-04-17T02:22:23.222Z,6.83
2018-04-17T02:24:50.672Z,6.23
2018-04-17T02:27:18.110Z,5.50
2018-04-17T02:29:45.573Z,4.33
2018-04-17T02:32:13.022Z,8.87
2018-04-17T02:34:41.220Z,8.27
2018-04-17T02:37:08.669Z,5.40
2018-04-17T02:39:36.120Z,4.57
2018-04-17T02:42:03.583Z,5.70
2018-04-17T02:44:31.024Z,6.10
2018-04-17T02:46:58.460Z,5.33
2018-04-17T02:49:26.680Z,7.67
2018-04-17T02:51:54.131Z,7.03
2018-04-17T02:54:21.593Z,6.43
2018-04-17T02:56:49.051Z,5.20
2018-04-17T02:59:17.269Z,6.23
2018-04-17T03:01:44.718Z,5.83
2018-04-17T03:04:12.182Z,4.37
2018-04-17T03:06:39.634Z,6.37
2018-04-17T03:09:07.060Z,5.10
2018-04-17T03:11:35.291Z,7.00
2018-04-17T03:14:02.734Z,6.80
2018-04-17T03:16:30.170Z,5.50
2018-04-17T03:18:58.383Z,5.00
2018-04-17T03:21:25.951Z,5.70
2018-04-17T03:23:53.382Z,5.50
2018-04-17T03:26:21.596Z,6.23
2018-04-17T03:28:49.045Z,7.10
2018-04-17T03:31:17.248Z,5.53
2018-04-17T03:33:44.695Z,5.17
2018-04-17T03:36:12.146Z,5.17
2018-04-17T03:38:39.584Z,7.50
2018-04-17T03:41:07.808Z,12.83
2018-04-17T03:43:35.238Z,6.63
2018-04-17T03:46:02.688Z,5.93
2018-04-17T03:48:30.899Z,5.53
2018-04-17T03:50:58.341Z,6.77
2018-04-17T03:53:25.794Z,5.47
2018-04-17T03:55:54.019Z,8.53
2018-04-17T03:58:22.227Z,5.87
2018-04-17T04:00:49.676Z,4.50
2018-04-17T04:03:17.135Z,6.93
2018-04-17T04:05:44.576Z,5.37
2018-04-17T04:08:12.017Z,7.10
2018-04-17T04:10:39.469Z,5.70
2018-04-17T04:13:07.669Z,4.30
2018-04-17T04:15:35.111Z,5.77
2018-04-17T04:18:14.443Z,7.23
2018-04-17T04:20:54.573Z,4.33
2018-04-17T04:23:33.969Z,6.83
2018-04-17T04:26:13.382Z,6.33
2018-04-17T04:28:40.821Z,7.90
2018-04-17T04:31:09.026Z,14.40
2018-04-17T04:33:36.477Z,15.77
2018-04-17T04:36:03.944Z,12.10
2018-04-17T04:38:31.385Z,11.73
2018-04-17T04:40:59.589Z,10.23
2018-04-17T04:43:27.049Z,9.13
2018-04-17T04:45:54.502Z,7.03
2018-04-17T04:48:21.948Z,5.67
2018-04-17T04:50:50.169Z,5.33
2018-04-17T04:53:17.612Z,4.70
2018-04-17T04:55:45.070Z,7.87
2018-04-17T04:58:12.533Z,6.20
2018-04-17T05:00:40.748Z,6.60
2018-04-17T05:03:08.206Z,6.97
2018-04-17T05:05:35.641Z,5.23
2018-04-17T05:08:03.104Z,5.03
2018-04-17T05:10:30.549Z,6.90
2018-04-17T05:12:58.767Z,7.53
2018-04-17T05:15:26.217Z,8.67
2018-04-17T05:17:53.677Z,9.97
2018-04-17T05:20:21.119Z,8.43
2018-04-17T05:22:48.555Z,6.60
2018-04-17T05:25:16.003Z,10.33
2018-04-17T05:27:43.461Z,8.47
2018-04-17T05:30:10.912Z,10.17
2018-04-17T05:32:38.395Z,8.23
2018-04-17T05:35:05.807Z,7.53
2018-04-17T05:37:33.279Z,10.70
2018-04-17T05:40:00.711Z,6.77
2018-04-17T05:42:28.167Z,6.10
2018-04-17T05:44:56.382Z,9.40
2018-04-17T05:47:23.833Z,12.87
2018-04-17T05:49:51.307Z,7.53
2018-04-17T05:52:18.747Z,8.70
2018-04-17T05:54:46.211Z,8.23
2018-04-17T05:57:14.096Z,7.30
2018-04-17T05:59:41.555Z,7.57
2018-04-17T06:02:08.999Z,9.87
2018-04-17T06:04:37.223Z,9.80
2018-04-17T06:07:04.669Z,22.10
2018-04-17T06:09:32.124Z,22.53
2018-04-17T06:12:00.357Z,13.73
2018-04-17T06:14:27.813Z,13.50
2018-04-17T06:16:55.281Z,16.73
2018-04-17T06:19:23.436Z,11.47
2018-04-17T06:21:50.892Z,11.43
2018-04-17T06:24:18.357Z,15.33
2018-04-17T06:26:45.806Z,9.40
2018-04-17T06:29:13.283Z,11.83
2018-04-17T06:31:40.746Z,7.57
2018-04-17T06:34:08.203Z,6.50
2018-04-17T06:36:35.640Z,7.63
2018-04-17T06:39:03.107Z,10.93
2018-04-17T06:41:30.568Z,10.07
2018-04-17T06:43:58.013Z,16.50
2018-04-17T06:46:25.468Z,14.30
2018-04-17T06:48:53.700Z,11.87
2018-04-17T06:51:21.163Z,11.63
2018-04-17T06:53:48.633Z,14.00
2018-04-17T06:56:16.084Z,9.80
2018-04-17T06:58:43.528Z,9.87
2018-04-17T07:01:10.983Z,6.47
2018-04-17T07:03:38.430Z,8.70
2018-04-17T07:06:05.901Z,8.80
2018-04-17T07:08:33.350Z,8.40
2018-04-17T07:11:01.564Z,7.33
2018-04-17T07:13:29.020Z,8.03
2018-04-17T07:15:56.477Z,9.83
2018-04-17T07:18:23.929Z,7.97
2018-04-17T07:20:51.382Z,10.43
2018-04-17T07:23:19.596Z,6.83
2018-04-17T07:25:47.063Z,15.07
2018-04-17T07:28:14.522Z,6.50
2018-04-17T07:30:42.000Z,10.27
2018-04-17T07:33:09.436Z,7.20
2018-04-17T07:35:36.903Z,7.93
2018-04-17T07:38:04.356Z,12.93
2018-04-17T07:40:31.870Z,9.83
2018-04-17T07:42:59.270Z,9.33
2018-04-17T07:45:26.740Z,13.37
2018-04-17T07:48:06.028Z,8.90
2018-04-17T07:50:33.499Z,15.07
2018-04-17T07:53:01.713Z,16.30
2018-04-17T07:55:29.180Z,10.80
2018-04-17T07:57:56.634Z,13.33
2018-04-17T08:00:24.110Z,12.50
2018-04-17T08:02:51.575Z,37.27
2018-04-17T08:05:19.132Z,14.67
2018-04-17T08:07:46.573Z,13.00
2018-04-17T08:10:14.043Z,12.03
2018-04-17T08:12:41.517Z,11.30
2018-04-17T08:15:08.949Z,8.20
2018-04-17T08:17:37.227Z,9.48
2018-04-17T08:20:04.628Z,9.50
2018-04-17T08:22:32.106Z,9.95
2018-04-17T08:24:59.552Z,6.97
2018-04-17T08:27:27.022Z,9.70
2018-04-17T08:29:54.470Z,9.52
2018-04-17T08:32:21.934Z,9.18
2018-04-17T08:34:49.379Z,7.97
2018-04-17T08:37:16.855Z,8.02
2018-04-17T08:39:44.301Z,6.78
2018-04-17T08:42:11.762Z,7.40
2018-04-17T08:44:39.192Z,7.05
2018-04-17T08:47:06.663Z,8.32
2018-04-17T08:49:34.881Z,9.77
2018-04-17T08:52:02.345Z,8.82
2018-04-17T08:54:29.840Z,9.07
2018-04-17T08:56:57.258Z,6.72
2018-04-17T08:59:24.736Z,7.70
2018-04-17T09:01:52.200Z,10.85
2018-04-17T09:04:19.679Z,6.32
2018-04-17T09:06:47.149Z,9.30
2018-04-17T09:09:14.595Z,11.52
2018-04-17T09:11:42.077Z,7.53
2018-04-17T09:14:09.529Z,7.78
2018-04-17T09:16:37.014Z,7.43
2018-04-17T09:19:04.467Z,7.43
2018-04-17T09:21:31.913Z,6.10
2018-04-17T09:23:59.371Z,7.85
2018-04-17T09:26:26.824Z,12.20
2018-04-17T09:28:54.280Z,6.78
2018-04-17T09:31:21.737Z,6.93
2018-04-17T09:33:49.208Z,6.75
2018-04-17T09:36:16.675Z,7.47
2018-04-17T09:38:44.134Z,6.93
2018-04-17T09:41:11.583Z,9.15
2018-04-17T09:43:39.059Z,6.25
2018-04-17T09:46:06.501Z,9.02
2018-04-17T09:48:34.008Z,8.30
2018-04-17T09:51:01.453Z,13.32
2018-04-17T09:53:28.945Z,13.23
2018-04-17T09:55:56.422Z,10.88
2018-04-17T09:58:23.893Z,6.85
2018-04-17T10:00:57.046Z,7.12
2018-04-17T10:03:24.588Z,11.12
2018-04-17T10:05:52.033Z,9.57
2018-04-17T10:08:19.500Z,9.77
2018-04-17T10:10:46.932Z,7.90
2018-04-17T10:13:14.388Z,9.65
2018-04-17T10:15:41.828Z,9.65
2018-04-17T10:18:09.286Z,6.47
2018-04-17T10:20:36.774Z,9.02
2018-04-17T10:23:04.225Z,8.48
2018-04-17T10:25:31.679Z,7.50
2018-04-17T10:27:59.141Z,8.98
2018-04-17T10:30:26.608Z,7.57
2018-04-17T10:32:54.074Z,8.68
2018-04-17T10:35:21.546Z,11.57
2018-04-17T10:37:49.010Z,7.82
2018-04-17T10:40:16.474Z,9.77
2018-04-17T10:42:43.948Z,6.68
2018-04-17T10:45:11.405Z,7.50
2018-04-17T10:47:38.862Z,8.80
2018-04-17T10:50:06.321Z,5.68
2018-04-17T10:52:33.792Z,6.12
2018-04-17T10:55:01.258Z,5.80
2018-04-17T10:57:28.708Z,7.97
2018-04-17T10:59:56.170Z,6.97
2018-04-17T11:02:23.621Z,5.43
2018-04-17T11:04:51.113Z,7.00
2018-04-17T11:07:18.538Z,7.68
2018-04-17T11:09:45.999Z,6.85
2018-04-17T11:12:13.457Z,9.52
2018-04-17T11:14:40.910Z,7.37
2018-04-17T11:17:08.381Z,6.57
2018-04-17T11:19:35.847Z,4.55
2018-04-17T11:22:03.327Z,5.53
2018-04-17T11:24:30.790Z,5.05
2018-04-17T11:26:58.230Z,4.80
2018-04-17T11:29:25.715Z,4.43
2018-04-17T11:31:53.164Z,7.18
2018-04-17T11:34:20.644Z,7.40
2018-04-17T11:36:48.150Z,5.07
2018-04-17T11:39:16.354Z,5.20
2018-04-17T11:41:43.819Z,5.87
2018-04-17T11:44:11.274Z,4.28
2018-04-17T11:46:38.719Z,5.40
2018-04-17T11:49:06.216Z,5.10
2018-04-17T11:51:33.676Z,3.80
2018-04-17T11:54:01.140Z,5.62
2018-04-17T11:56:28.590Z,3.03
2018-04-17T11:58:56.062Z,2.95
2018-04-17T12:01:23.528Z,6.87
2018-04-17T12:03:50.992Z,11.07
2018-04-17T12:06:18.466Z,4.60
2018-04-17T12:08:45.900Z,4.97
2018-04-17T12:11:13.367Z,6.90
2018-04-17T12:13:40.832Z,2.42
2018-04-17T12:16:08.264Z,4.65
2018-04-17T12:18:35.704Z,3.00
2018-04-17T12:21:03.941Z,4.95
2018-04-17T12:23:31.392Z,5.00
2018-04-17T12:25:58.842Z,3.25
2018-04-17T12:28:26.289Z,4.50
2018-04-17T12:30:53.742Z,2.97
2018-04-17T12:33:21.200Z,4.00
2018-04-17T12:35:49.431Z,4.80
2018-04-17T12:38:16.890Z,3.67
2018-04-17T12:40:44.357Z,3.40
2018-04-17T12:43:11.799Z,2.83
2018-04-17T12:45:39.302Z,3.17
2018-04-17T12:48:06.759Z,4.20
2018-04-17T12:50:34.235Z,4.70
2018-04-17T12:53:01.690Z,4.45
2018-04-17T12:55:29.161Z,2.95
2018-04-17T12:57:56.619Z,3.55
2018-04-17T13:00:24.130Z,5.05
2018-04-17T13:02:51.603Z,3.78
2018-04-17T13:05:19.077Z,3.55
2018-04-17T13:07:46.547Z,3.12
2018-04-17T13:10:14.004Z,4.70
2018-04-17T13:12:41.451Z,2.37
2018-04-17T13:15:08.909Z,2.42
2018-04-17T13:17:36.365Z,4.78
2018-04-17T13:20:03.819Z,3.33
2018-04-17T13:22:31.252Z,3.28
2018-04-17T13:24:58.720Z,3.17
2018-04-17T13:27:26.163Z,3.97
2018-04-17T13:29:53.642Z,2.95
2018-04-17T13:32:21.857Z,3.50
2018-04-17T13:34:49.307Z,2.37
2018-04-17T13:37:16.766Z,3.85
2018-04-17T13:39:44.965Z,3.08
2018-04-17T13:42:12.431Z,3.47
2018-04-17T13:44:39.886Z,2.17
2018-04-17T13:47:07.328Z,2.58
2018-04-17T13:49:35.565Z,3.65
2018-04-17T13:52:03.047Z,3.55
2018-04-17T13:54:30.509Z,2.08
2018-04-17T13:56:57.967Z,3.80
2018-04-17T13:59:25.435Z,2.37
2018-04-17T14:01:52.992Z,3.20
2018-04-17T14:04:20.425Z,4.68
2018-04-17T14:06:47.875Z,2.58
2018-04-17T14:09:15.334Z,3.50
2018-04-17T14:11:42.816Z,3.12
2018-04-17T14:14:10.265Z,3.22
2018-04-17T14:16:37.752Z,5.25
2018-04-17T14:19:05.189Z,5.50
2018-04-17T14:24:06.605Z,3.92
2018-04-17T14:26:34.061Z,3.25
2018-04-17T14:29:01.507Z,5.28
2018-04-17T14:31:28.976Z,3.08
2018-04-17T14:33:56.416Z,3.78
2018-04-17T14:36:23.886Z,3.58
2018-04-17T14:38:51.356Z,3.42
2018-04-17T14:41:18.822Z,3.08
2018-04-17T14:43:46.295Z,3.40
2018-04-17T14:46:13.758Z,3.00
2018-04-17T14:48:41.213Z,2.67
2018-04-17T14:51:08.676Z,3.03
2018-04-17T14:53:36.106Z,5.43
2018-04-17T14:56:03.565Z,3.45
2018-04-17T14:58:31.015Z,3.10
2018-04-17T15:00:58.475Z,2.65
2018-04-17T15:03:25.949Z,2.42
2018-04-17T15:05:54.139Z,3.62
2018-04-17T15:08:21.585Z,3.10
2018-04-17T15:10:49.033Z,4.22
2018-04-17T15:13:17.263Z,3.78
2018-04-17T15:15:44.693Z,4.10
2018-04-17T15:18:12.155Z,2.90
2018-04-17T15:20:39.593Z,2.97
2018-04-17T15:23:07.848Z,2.78
2018-04-17T15:25:35.294Z,2.75
2018-04-17T15:28:02.790Z,5.45
2018-04-17T15:30:31.007Z,3.85
2018-04-17T15:32:58.500Z,5.45
2018-04-17T15:35:25.952Z,3.85
2018-04-17T15:37:53.438Z,3.78
2018-04-17T15:40:20.891Z,2.60
2018-04-17T15:42:48.351Z,2.37
2018-04-17T15:45:15.803Z,4.97
2018-04-17T15:47:43.267Z,2.42
2018-04-17T15:50:10.713Z,2.85
2018-04-17T15:52:38.170Z,4.18
2018-04-17T15:55:06.385Z,4.55
2018-04-17T15:57:33.833Z,4.55
2018-04-17T16:00:01.728Z,5.22
2018-04-17T16:02:29.176Z,5.20
2018-04-17T16:04:56.625Z,2.08
2018-04-17T16:07:24.093Z,4.70
2018-04-17T16:09:51.530Z,3.47
2018-04-17T16:12:19.009Z,2.55
2018-04-17T16:14:46.451Z,3.72
2018-04-17T16:17:14.685Z,2.55
2018-04-17T16:19:43.041Z,4.97
2018-04-17T16:22:10.505Z,4.40
2018-04-17T16:24:38.281Z,3.17
2018-04-17T16:27:05.757Z,5.40
2018-04-17T16:29:33.179Z,3.47
2018-04-17T16:32:00.636Z,5.00
2018-04-17T16:34:28.086Z,2.78
2018-04-17T16:36:55.546Z,2.97
2018-04-17T16:39:23.009Z,5.25
2018-04-17T16:41:50.464Z,2.47
2018-04-17T16:44:17.919Z,6.28
2018-04-17T16:46:45.389Z,3.95
2018-04-17T16:49:13.588Z,4.45
2018-04-17T16:51:41.029Z,3.92
2018-04-17T16:54:08.492Z,3.95
2018-04-17T16:56:36.689Z,3.60
2018-04-17T16:59:04.140Z,2.55
2018-04-17T17:01:31.595Z,3.97
2018-04-17T17:03:59.860Z,2.42
2018-04-17T17:06:28.089Z,7.07
2018-04-17T17:08:56.334Z,5.85
2018-04-17T17:11:24.566Z,3.00
2018-04-17T17:13:52.008Z,5.70
2018-04-17T17:16:19.461Z,3.30
2018-04-17T17:21:21.453Z,6.75
2018-04-17T17:23:49.755Z,5.40
2018-04-17T17:26:17.191Z,4.57
2018-04-17T17:28:44.666Z,4.22
2018-04-17T17:31:12.125Z,4.32
2018-04-17T17:33:39.576Z,3.53
2018-04-17T17:36:07.027Z,3.37
2018-04-17T17:38:34.484Z,3.67
2018-04-17T17:41:01.914Z,3.17
2018-04-17T17:43:29.380Z,4.53
2018-04-17T17:45:56.843Z,4.28
2018-04-17T17:48:24.311Z,4.12
2018-04-17T17:50:51.772Z,2.80
2018-04-17T17:53:19.236Z,2.37
2018-04-17T17:55:46.663Z,4.00
2018-04-17T17:58:14.111Z,3.00
2018-04-17T18:00:41.561Z,5.12
2018-04-17T18:03:09.036Z,4.35
2018-04-17T18:05:36.482Z,3.75
2018-04-17T18:08:03.931Z,3.05
2018-04-17T18:10:31.396Z,3.95
2018-04-17T18:12:58.854Z,7.55
2018-04-17T18:15:26.323Z,3.08
2018-04-17T18:17:53.781Z,4.35
2018-04-17T18:20:21.236Z,4.45
2018-04-17T18:22:49.473Z,3.85
2018-04-17T18:25:16.938Z,4.20
2018-04-17T18:27:44.375Z,4.15
2018-04-17T18:30:11.847Z,3.80
2018-04-17T18:32:39.298Z,4.07
2018-04-17T18:35:06.771Z,4.55
2018-04-17T18:37:34.217Z,4.30
2018-04-17T18:40:03.157Z,4.90
2018-04-17T18:42:30.605Z,2.87
2018-04-17T18:44:58.064Z,6.20
2018-04-17T18:47:25.509Z,3.33
2018-04-17T18:49:54.096Z,3.90
2018-04-17T18:52:21.557Z,5.00
2018-04-17T18:54:49.026Z,3.97
2018-04-17T18:57:16.481Z,3.67
2018-04-17T18:59:43.942Z,6.15
2018-04-17T19:02:11.393Z,6.12
2018-04-17T19:04:38.853Z,6.25
2018-04-17T19:07:06.299Z,5.85
2018-04-17T19:09:33.751Z,4.40
2018-04-17T19:12:01.972Z,2.80
2018-04-17T19:14:29.447Z,5.50
2018-04-17T19:16:56.890Z,3.58
2018-04-17T19:19:24.333Z,3.72
2018-04-17T19:21:52.552Z,3.55
2018-04-17T19:24:20.013Z,3.15
2018-04-17T19:26:48.259Z,4.97
2018-04-17T19:29:15.816Z,4.55
2018-04-17T19:31:44.137Z,2.67
2018-04-17T19:34:11.658Z,4.25
2018-04-17T19:36:39.149Z,3.87
2018-04-17T19:39:09.629Z,3.58
2018-04-17T19:41:37.962Z,5.90
2018-04-17T19:44:05.523Z,4.95
2018-04-17T19:46:33.061Z,6.53
2018-04-17T19:49:01.297Z,4.20
2018-04-17T19:51:28.808Z,2.50
2018-04-17T19:53:57.867Z,3.17
2018-04-17T19:56:25.326Z,4.30
2018-04-17T19:58:52.822Z,3.60
2018-04-17T20:01:21.068Z,2.62
2018-04-17T20:03:48.508Z,4.90
2018-04-17T20:06:15.984Z,5.40
2018-04-17T20:08:43.461Z,3.95
2018-04-17T20:11:10.954Z,3.30
2018-04-17T20:13:39.201Z,4.30
2018-04-17T20:16:06.690Z,4.15
2018-04-17T20:18:34.913Z,6.70
2018-04-17T20:21:02.378Z,3.10
2018-04-17T20:23:30.633Z,4.93
2018-04-17T20:25:58.092Z,3.87
2018-04-17T20:28:25.553Z,4.40
2018-04-17T20:30:53.033Z,3.55
2018-04-17T20:33:20.500Z,3.67
2018-04-17T20:35:48.766Z,3.45
2018-04-17T20:38:16.301Z,5.05
2018-04-17T20:40:44.529Z,5.47
2018-04-17T20:43:11.987Z,3.58
2018-04-17T20:45:39.454Z,3.08
2018-04-17T20:48:07.002Z,7.40
2018-04-17T20:50:34.530Z,3.85
2018-04-17T20:53:02.787Z,5.53
2018-04-17T20:55:30.281Z,4.55
2018-04-17T20:57:58.568Z,4.07
2018-04-17T21:00:27.043Z,3.90
2018-04-17T21:02:55.292Z,4.20
2018-04-17T21:05:23.636Z,5.30
2018-04-17T21:07:51.124Z,4.90
2018-04-17T21:10:18.700Z,5.30
2018-04-17T21:12:46.160Z,4.12
2018-04-17T21:15:13.634Z,4.60
2018-04-17T21:17:41.909Z,6.97
2018-04-17T21:20:09.383Z,4.80
2018-04-17T21:22:37.002Z,5.20
2018-04-17T21:25:04.500Z,5.07
2018-04-17T21:27:31.971Z,6.25
2018-04-17T21:30:00.250Z,4.50
2018-04-17T21:32:27.793Z,4.45
2018-04-17T21:34:55.273Z,7.28
2018-04-17T21:37:22.763Z,4.43
2018-04-17T21:39:50.256Z,4.45
2018-04-17T21:42:17.776Z,5.25
2018-04-17T21:44:45.259Z,5.82
2018-04-17T21:47:12.755Z,5.43
2018-04-17T21:49:40.209Z,7.07
2018-04-17T21:52:07.678Z,4.10
2018-04-17T21:54:35.198Z,6.95
2018-04-17T21:57:02.714Z,7.22
2018-04-17T21:59:30.189Z,4.12
2018-04-17T22:01:57.712Z,6.12
2018-04-17T22:04:25.961Z,4.72
2018-04-17T22:06:53.434Z,5.37
2018-04-17T22:09:20.885Z,3.87
2018-04-17T22:11:48.360Z,4.97
2018-04-17T22:14:15.784Z,6.28
2018-04-17T22:16:43.277Z,7.05
2018-04-17T22:19:10.747Z,6.70
2018-04-17T22:21:38.232Z,4.78
2018-04-17T22:24:06.480Z,5.60
2018-04-17T22:26:34.000Z,4.75
2018-04-17T22:29:01.474Z,4.85
2018-04-17T22:31:28.949Z,5.70
2018-04-17T22:33:56.422Z,5.85
2018-04-17T22:36:23.898Z,7.70
2018-04-17T22:38:51.367Z,7.90
2018-04-17T22:41:18.857Z,5.78
2018-04-17T22:43:47.102Z,6.15
2018-04-17T22:46:14.805Z,5.78
2018-04-17T22:48:46.075Z,5.55
2018-04-17T22:51:13.509Z,7.80
2018-04-17T22:53:41.729Z,6.03
2018-04-17T22:56:09.186Z,8.00
2018-04-17T22:58:36.663Z,6.75
2018-04-17T23:01:04.107Z,6.07
2018-04-17T23:03:31.570Z,7.45
2018-04-17T23:05:59.033Z,5.72
2018-04-17T23:08:26.503Z,6.00
2018-04-17T23:10:53.972Z,5.70
2018-04-17T23:13:22.193Z,6.30
2018-04-17T23:15:49.643Z,5.85
2018-04-17T23:18:17.621Z,5.93
2018-04-17T23:20:45.057Z,6.30
2018-04-17T23:23:12.500Z,5.40
2018-04-17T23:25:39.938Z,6.05
2018-04-17T23:28:07.391Z,6.07
2018-04-17T23:30:34.840Z,8.00
2018-04-17T23:33:02.292Z,6.87
2018-04-17T23:35:29.749Z,7.15
2018-04-17T23:37:57.197Z,6.25
2018-04-17T23:40:24.656Z,6.50
2018-04-17T23:42:52.106Z,6.93
2018-04-17T23:45:20.218Z,8.05
2018-04-17T23:47:47.678Z,6.20
2018-04-17T23:50:15.149Z,6.30
2018-04-17T23:52:42.601Z,6.32
2018-04-17T23:55:10.039Z,6.45
2018-04-17T23:57:37.486Z,6.40
